Time;durP1;ratioP1;P1;durP2;ratioP2;P2;SDS_P1;SDS_P2;PMS_P1;PMS_P2;Temp;Humidity;BMP_temperature;BMP_pressure;BME280_temperature;BME280_humidity;BME280_pressure;Samples;Min_cycle;Max_cycle;Signal;HPM_P1;HPM_P2
2024/02/28 00:17:35;;;;;;;9.55;5.63;;;;;;;;;;5050694;28;20521;-54
2024/02/28 00:20:02;;;;;;;9.30;5.55;;;;;;;;;;5048966;28;20025;-56
2024/02/28 00:22:28;;;;;;;9.48;5.60;;;;;;;;;;5050067;28;20441;-57
2024/02/28 00:24:54;;;;;;;9.80;5.78;;;;;;;;;;5040593;28;20109;-55
2024/02/28 00:27:20;;;;;;;9.65;5.70;;;;;;;;;;5046326;28;20337;-54
2024/02/28 00:29:46;;;;;;;9.55;5.60;;;;;;;;;;5030002;28;20147;-53
2024/02/28 00:32:12;;;;;;;9.30;5.50;;;;;;;;;;5029736;28;20031;-55
2024/02/28 00:40:45;;;;;;;9.63;5.70;;;;;;;;;;5050097;28;20074;-53
2024/02/28 00:43:11;;;;;;;9.77;5.78;;;;;;;;;;5049283;28;20037;-56
2024/02/28 00:45:37;;;;;;;9.80;5.80;;;;;;;;;;5049866;28;20048;-54
2024/02/28 00:48:03;;;;;;;9.50;5.60;;;;;;;;;;5064982;28;20029;-54
2024/02/28 00:50:29;;;;;;;9.57;5.68;;;;;;;;;;5064883;28;20041;-54
2024/02/28 00:52:55;;;;;;;9.50;5.60;;;;;;;;;;5064623;28;20119;-54
2024/02/28 00:55:21;;;;;;;9.52;5.68;;;;;;;;;;5049653;28;20120;-56
2024/02/28 00:57:47;;;;;;;9.15;5.43;;;;;;;;;;5064894;28;20070;-54
2024/02/28 01:00:13;;;;;;;10.18;7.25;;;;;;;;;;5049430;28;20021;-53
2024/02/28 01:02:41;;;;;;;9.57;5.68;;;;;;;;;;5064703;28;20021;-57
2024/02/28 01:05:07;;;;;;;9.70;5.70;;;;;;;;;;5049662;28;20509;-60
2024/02/28 01:07:33;;;;;;;10.00;5.90;;;;;;;;;;5049478;28;20044;-55
2024/02/28 01:09:59;;;;;;;9.25;5.43;;;;;;;;;;5049449;28;20021;-54
2024/02/28 01:12:25;;;;;;;11.30;7.20;;;;;;;;;;5049205;28;20484;-53
2024/02/28 01:14:51;;;;;;;10.25;6.75;;;;;;;;;;5049456;28;20025;-57
2024/02/28 01:17:17;;;;;;;9.30;5.47;;;;;;;;;;5064884;28;20025;-61
2024/02/28 01:19:43;;;;;;;8.75;5.20;;;;;;;;;;5049461;28;20060;-56
2024/02/28 01:22:09;;;;;;;8.70;5.10;;;;;;;;;;5049015;28;20086;-55
2024/02/28 01:24:36;;;;;;;8.30;4.90;;;;;;;;;;5049355;28;20033;-55
2024/02/28 01:27:02;;;;;;;12.10;7.60;;;;;;;;;;5049149;28;20055;-54
2024/02/28 01:29:29;;;;;;;12.50;6.40;;;;;;;;;;5049060;28;20029;-52
2024/02/28 01:31:55;;;;;;;14.07;7.80;;;;;;;;;;5064531;28;20139;-53
2024/02/28 01:34:22;;;;;;;10.45;6.15;;;;;;;;;;5048848;28;20434;-54
2024/02/28 01:36:48;;;;;;;10.05;6.20;;;;;;;;;;5049075;28;20021;-55
2024/02/28 01:39:14;;;;;;;9.32;5.53;;;;;;;;;;5049501;28;20454;-57
2024/02/28 01:41:40;;;;;;;8.88;5.28;;;;;;;;;;5049192;28;20032;-53
2024/02/28 01:44:06;;;;;;;9.27;5.82;;;;;;;;;;5048837;28;20021;-56
2024/02/28 01:46:32;;;;;;;9.35;5.50;;;;;;;;;;5049071;28;20043;-55
2024/02/28 01:48:59;;;;;;;15.32;9.88;;;;;;;;;;5064154;28;20449;-54
2024/02/28 01:51:27;;;;;;;8.90;5.30;;;;;;;;;;5048861;28;20085;-54
2024/02/28 01:53:53;;;;;;;9.07;5.40;;;;;;;;;;5048272;28;20032;-55
2024/02/28 01:56:21;;;;;;;9.00;5.30;;;;;;;;;;5048898;28;20669;-56
2024/02/28 01:58:47;;;;;;;9.10;5.40;;;;;;;;;;5046981;28;20025;-54
2024/02/28 02:01:17;;;;;;;9.60;5.70;;;;;;;;;;5048367;28;20048;-55
2024/02/28 02:03:44;;;;;;;12.57;8.00;;;;;;;;;;5048368;28;20071;-58
2024/02/28 02:06:11;;;;;;;9.30;5.50;;;;;;;;;;5048375;28;20021;-56
2024/02/28 02:08:37;;;;;;;9.23;5.50;;;;;;;;;;5048595;28;20098;-57
2024/02/28 02:11:03;;;;;;;8.77;5.20;;;;;;;;;;5048499;28;20091;-55
2024/02/28 02:13:29;;;;;;;9.23;5.88;;;;;;;;;;5047302;28;20028;-56
2024/02/28 02:15:55;;;;;;;8.68;5.18;;;;;;;;;;5048365;28;20040;-54
2024/02/28 02:18:21;;;;;;;8.77;5.20;;;;;;;;;;5048384;28;20021;-54
2024/02/28 02:20:50;;;;;;;9.30;5.50;;;;;;;;;;5048479;28;20116;-56
2024/02/28 02:23:16;;;;;;;9.48;5.75;;;;;;;;;;5048337;28;20017;-54
2024/02/28 02:25:46;;;;;;;9.50;5.60;;;;;;;;;;5048402;28;20028;-58
2024/02/28 02:28:12;;;;;;;8.95;5.28;;;;;;;;;;5047661;28;20021;-56
2024/02/28 02:30:39;;;;;;;8.68;5.10;;;;;;;;;;5049151;28;20021;-58
2024/02/28 02:33:05;;;;;;;9.90;5.88;;;;;;;;;;5047598;28;20082;-54
2024/02/28 02:35:31;;;;;;;9.40;5.60;;;;;;;;;;5047195;28;20025;-55
2024/02/28 02:37:57;;;;;;;9.15;5.80;;;;;;;;;;5047648;28;20025;-53
2024/02/28 02:40:23;;;;;;;8.52;5.05;;;;;;;;;;5047950;28;20078;-52
2024/02/28 02:42:49;;;;;;;9.07;5.47;;;;;;;;;;5048295;28;20033;-55
2024/02/28 02:45:15;;;;;;;8.88;5.22;;;;;;;;;;5047600;28;20025;-56
2024/02/28 02:47:41;;;;;;;8.60;5.10;;;;;;;;;;5047561;28;20041;-55
2024/02/28 02:50:07;;;;;;;8.55;5.10;;;;;;;;;;5046191;28;20398;-52
2024/02/28 02:52:33;;;;;;;8.70;5.13;;;;;;;;;;5046429;28;20494;-56
2024/02/28 02:54:59;;;;;;;9.20;5.40;;;;;;;;;;5046097;28;20029;-54
2024/02/28 02:57:25;;;;;;;9.60;5.65;;;;;;;;;;5047061;28;20454;-56
2024/02/28 02:59:51;;;;;;;9.05;5.40;;;;;;;;;;5047659;28;20090;-55
2024/02/28 03:02:17;;;;;;;10.25;6.30;;;;;;;;;;5047788;28;20021;-55
2024/02/28 03:04:43;;;;;;;9.88;5.90;;;;;;;;;;5048022;28;20025;-57
2024/02/28 03:07:09;;;;;;;8.65;5.10;;;;;;;;;;5050398;28;20044;-58
2024/02/28 03:09:35;;;;;;;8.82;5.22;;;;;;;;;;5051655;28;20402;-55
2024/02/28 03:12:00;;;;;;;9.10;5.50;;;;;;;;;;5051596;28;20033;-52
2024/02/28 03:14:27;;;;;;;8.95;5.88;;;;;;;;;;5051490;28;20435;-54
2024/02/28 03:16:53;;;;;;;8.60;5.10;;;;;;;;;;5051734;28;20056;-56
2024/02/28 03:19:19;;;;;;;9.25;5.40;;;;;;;;;;5051446;28;20064;-58
2024/02/28 03:21:45;;;;;;;8.65;5.10;;;;;;;;;;5051512;28;20119;-56
2024/02/28 03:24:11;;;;;;;8.80;5.20;;;;;;;;;;5051023;28;20051;-54
2024/02/28 03:26:37;;;;;;;8.65;5.13;;;;;;;;;;5049607;28;20494;-58
2024/02/28 03:29:03;;;;;;;9.50;5.80;;;;;;;;;;5050270;28;20035;-57
2024/02/28 03:31:29;;;;;;;9.52;5.97;;;;;;;;;;5051116;28;20048;-58
2024/02/28 03:33:55;;;;;;;8.52;5.03;;;;;;;;;;5051295;28;20024;-57
2024/02/28 03:36:21;;;;;;;9.10;5.53;;;;;;;;;;5051541;28;20032;-53
2024/02/28 03:38:47;;;;;;;9.00;5.30;;;;;;;;;;5051183;28;20021;-51
2024/02/28 03:41:13;;;;;;;8.60;5.10;;;;;;;;;;5051304;28;20083;-54
2024/02/28 03:43:39;;;;;;;8.57;5.10;;;;;;;;;;5050026;28;20463;-55
2024/02/28 03:46:05;;;;;;;8.50;5.00;;;;;;;;;;5051117;28;20032;-54
2024/02/28 03:48:31;;;;;;;8.60;5.10;;;;;;;;;;5051131;28;20094;-53
2024/02/28 03:50:57;;;;;;;8.65;5.13;;;;;;;;;;5050345;28;20536;-53
2024/02/28 03:53:23;;;;;;;8.45;5.00;;;;;;;;;;5051022;28;20021;-56
2024/02/28 03:55:50;;;;;;;9.27;5.50;;;;;;;;;;5050898;28;20455;-55
2024/02/28 03:58:16;;;;;;;9.57;5.70;;;;;;;;;;5050152;28;20424;-54
2024/02/28 04:00:44;;;;;;;9.73;5.72;;;;;;;;;;5049363;28;20040;-54
2024/02/28 04:03:10;;;;;;;12.20;9.10;;;;;;;;;;5050795;28;20013;-55
2024/02/28 04:05:36;;;;;;;9.95;6.18;;;;;;;;;;5050755;28;20037;-55
2024/02/28 04:08:02;;;;;;;10.50;6.60;;;;;;;;;;5049256;28;20029;-57
2024/02/28 04:10:28;;;;;;;9.60;5.68;;;;;;;;;;5050511;28;20103;-57
2024/02/28 04:12:54;;;;;;;12.27;7.60;;;;;;;;;;5048726;28;20021;-54
2024/02/28 04:15:20;;;;;;;9.88;5.82;;;;;;;;;;5050302;28;20123;-53
2024/02/28 04:17:46;;;;;;;10.60;6.25;;;;;;;;;;5049615;28;20032;-55
2024/02/28 04:20:12;;;;;;;10.85;6.38;;;;;;;;;;5050263;28;20088;-51
2024/02/28 04:22:38;;;;;;;10.38;6.15;;;;;;;;;;5048699;28;20376;-54
2024/02/28 04:25:05;;;;;;;10.05;5.93;;;;;;;;;;5050282;28;20399;-53
2024/02/28 04:27:31;;;;;;;9.77;5.75;;;;;;;;;;5048058;28;20091;-57
2024/02/28 04:29:57;;;;;;;9.68;5.68;;;;;;;;;;5049626;28;20040;-56
2024/02/28 04:32:24;;;;;;;9.90;5.88;;;;;;;;;;5050168;28;20491;-55
2024/02/28 04:34:50;;;;;;;9.90;5.82;;;;;;;;;;5048916;28;20179;-55
2024/02/28 04:37:16;;;;;;;9.93;5.85;;;;;;;;;;5050171;28;20104;-57
2024/02/28 04:39:41;;;;;;;9.80;5.80;;;;;;;;;;5048613;28;20123;-57
2024/02/28 04:42:07;;;;;;;10.00;5.90;;;;;;;;;;5048603;28;20119;-58
2024/02/28 04:44:34;;;;;;;10.43;6.10;;;;;;;;;;5049955;28;20032;-56
2024/02/28 04:47:00;;;;;;;13.15;7.22;;;;;;;;;;5048628;28;20044;-55
2024/02/28 04:49:26;;;;;;;10.13;6.00;;;;;;;;;;5049606;28;20117;-53
2024/02/28 04:51:52;;;;;;;12.23;8.05;;;;;;;;;;5048225;28;20083;-52
2024/02/28 04:54:18;;;;;;;11.20;6.60;;;;;;;;;;5048927;28;20493;-56
2024/02/28 04:56:46;;;;;;;13.52;8.13;;;;;;;;;;5048526;28;20168;-56
2024/02/28 04:59:12;;;;;;;11.97;7.33;;;;;;;;;;5048919;28;20029;-55
2024/02/28 05:01:45;;;;;;;11.35;6.75;;;;;;;;;;5048862;28;20406;-56
2024/02/28 05:04:12;;;;;;;11.00;6.47;;;;;;;;;;5049751;28;20025;-55
2024/02/28 05:06:38;;;;;;;14.27;10.60;;;;;;;;;;5050027;28;20029;-55
2024/02/28 05:09:04;;;;;;;19.58;13.65;;;;;;;;;;5049601;28;20083;-57
2024/02/28 05:11:30;;;;;;;11.50;7.00;;;;;;;;;;5048569;28;20032;-56
2024/02/28 05:13:56;;;;;;;14.20;7.40;;;;;;;;;;5047868;28;20032;-53
2024/02/28 05:16:22;;;;;;;11.82;6.90;;;;;;;;;;5048728;28;20021;-57
2024/02/28 05:18:48;;;;;;;11.90;7.50;;;;;;;;;;5047132;28;20400;-52
2024/02/28 05:21:14;;;;;;;49.53;13.63;;;;;;;;;;5047983;28;20025;-56
2024/02/28 05:23:40;;;;;;;11.77;6.97;;;;;;;;;;5048090;28;20025;-54
2024/02/28 05:26:06;;;;;;;14.40;8.65;;;;;;;;;;5049200;28;20394;-57
2024/02/28 05:28:36;;;;;;;12.45;8.05;;;;;;;;;;5048102;28;20058;-57
2024/02/28 05:31:03;;;;;;;11.70;6.90;;;;;;;;;;5048996;28;20039;-54
2024/02/28 05:33:29;;;;;;;11.75;6.88;;;;;;;;;;5048952;28;20379;-55
2024/02/28 05:35:55;;;;;;;11.20;6.57;;;;;;;;;;5048436;28;20025;-58
2024/02/28 05:38:21;;;;;;;11.15;6.57;;;;;;;;;;5048541;28;20052;-56
2024/02/28 05:40:47;;;;;;;11.20;6.60;;;;;;;;;;5048792;28;20071;-53
2024/02/28 05:43:13;;;;;;;11.43;6.80;;;;;;;;;;5047399;28;20513;-57
2024/02/28 05:45:39;;;;;;;11.52;6.80;;;;;;;;;;5048896;28;20653;-55
2024/02/28 05:48:05;;;;;;;12.13;7.28;;;;;;;;;;5048721;28;20112;-55
2024/02/28 05:50:32;;;;;;;12.02;7.30;;;;;;;;;;5049661;28;20411;-52
2024/02/28 05:52:59;;;;;;;13.63;7.93;;;;;;;;;;5048812;28;20022;-57
2024/02/28 05:55:26;;;;;;;12.25;8.10;;;;;;;;;;5047319;28;20491;-56
2024/02/28 05:57:52;;;;;;;11.07;6.53;;;;;;;;;;5047503;28;20037;-57
2024/02/28 06:00:18;;;;;;;12.30;7.95;;;;;;;;;;5048212;28;20029;-58
2024/02/28 06:02:44;;;;;;;11.93;7.00;;;;;;;;;;5047645;28;20538;-55
2024/02/28 06:05:10;;;;;;;12.35;7.28;;;;;;;;;;5046923;28;20037;-57
2024/02/28 06:07:36;;;;;;;12.20;7.10;;;;;;;;;;5048614;28;20106;-56
2024/02/28 06:10:03;;;;;;;12.18;7.10;;;;;;;;;;5047617;28;20025;-57
2024/02/28 06:12:29;;;;;;;12.13;7.07;;;;;;;;;;5048787;28;20083;-56
2024/02/28 06:14:55;;;;;;;12.25;7.13;;;;;;;;;;5048787;28;20029;-54
2024/02/28 06:17:22;;;;;;;12.40;7.30;;;;;;;;;;5048450;28;20493;-58
2024/02/28 06:19:48;;;;;;;16.33;8.10;;;;;;;;;;5048656;28;20112;-58
2024/02/28 06:22:14;;;;;;;12.32;7.20;;;;;;;;;;5048138;28;20025;-57
2024/02/28 06:24:40;;;;;;;12.70;7.40;;;;;;;;;;5048280;28;20025;-57
2024/02/28 06:27:12;;;;;;;14.57;9.18;;;;;;;;;;5048135;28;20080;-50
2024/02/28 06:29:37;;;;;;;12.65;7.43;;;;;;;;;;5048786;28;20021;-58
2024/02/28 06:32:04;;;;;;;14.45;8.95;;;;;;;;;;5047345;28;20510;-56
2024/02/28 06:34:30;;;;;;;12.77;7.45;;;;;;;;;;5048262;28;20037;-54
2024/02/28 06:36:56;;;;;;;13.35;8.82;;;;;;;;;;5047810;28;20017;-55
2024/02/28 06:39:22;;;;;;;16.02;9.77;;;;;;;;;;5048249;28;20055;-58
2024/02/28 06:41:51;;;;;;;12.20;7.40;;;;;;;;;;5050923;28;20079;-50
2024/02/28 06:44:18;;;;;;;12.70;7.60;;;;;;;;;;5051858;28;20069;-57
2024/02/28 06:46:44;;;;;;;12.43;7.50;;;;;;;;;;5052417;28;20408;-57
2024/02/28 06:49:10;;;;;;;12.43;7.25;;;;;;;;;;5052100;28;20029;-58
2024/02/28 06:51:37;;;;;;;13.15;8.70;;;;;;;;;;5052367;28;20028;-56
2024/02/28 06:54:03;;;;;;;12.55;7.30;;;;;;;;;;5052001;28;20092;-57
2024/02/28 06:56:31;;;;;;;12.57;7.32;;;;;;;;;;5050776;28;20159;-54
2024/02/28 06:58:57;;;;;;;14.48;9.40;;;;;;;;;;5052181;28;20100;-57
2024/02/28 07:01:23;;;;;;;13.70;7.82;;;;;;;;;;5049787;28;20021;-58
2024/02/28 07:03:49;;;;;;;14.07;9.95;;;;;;;;;;5055577;28;20025;-61
2024/02/28 07:06:14;;;;;;;13.00;7.85;;;;;;;;;;5040383;28;20053;-58
2024/02/28 07:08:40;;;;;;;12.88;7.53;;;;;;;;;;5030818;28;20028;-58
2024/02/28 07:11:13;;;;;;;13.38;8.15;;;;;;;;;;5046217;28;20025;-60
2024/02/28 07:13:39;;;;;;;12.90;7.55;;;;;;;;;;5066532;28;20502;-58
2024/02/28 07:16:06;;;;;;;12.57;7.40;;;;;;;;;;5051997;28;20043;-53
2024/02/28 07:18:32;;;;;;;13.02;7.70;;;;;;;;;;5044886;28;20029;-56
2024/02/28 07:20:58;;;;;;;13.95;9.45;;;;;;;;;;5030859;28;20022;-58
2024/02/28 07:23:25;;;;;;;13.57;8.90;;;;;;;;;;5031586;28;20035;-58
2024/02/28 07:25:51;;;;;;;14.32;9.60;;;;;;;;;;5031895;28;20056;-56
2024/02/28 07:28:16;;;;;;;13.30;8.10;;;;;;;;;;5030824;28;20161;-52
2024/02/28 07:30:44;;;;;;;30.58;11.55;;;;;;;;;;5032109;28;20033;-56
2024/02/28 07:33:10;;;;;;;12.82;7.80;;;;;;;;;;5032337;28;20502;-51
2024/02/28 07:35:46;;;;;;;13.65;8.70;;;;;;;;;;5039743;28;20033;-52
2024/02/28 07:38:12;;;;;;;13.07;7.78;;;;;;;;;;5052374;28;20025;-57
2024/02/28 07:40:38;;;;;;;13.40;8.05;;;;;;;;;;5052110;28;20021;-57
2024/02/28 07:43:04;;;;;;;12.95;7.65;;;;;;;;;;5051018;28;20510;-55
2024/02/28 07:45:30;;;;;;;13.38;7.97;;;;;;;;;;5051014;28;20029;-59
2024/02/28 07:47:56;;;;;;;13.65;9.13;;;;;;;;;;5066435;28;20538;-58
2024/02/28 07:50:22;;;;;;;13.13;7.93;;;;;;;;;;5050678;28;20048;-58
2024/02/28 07:52:48;;;;;;;16.83;9.23;;;;;;;;;;5049643;28;20036;-58
2024/02/28 07:55:14;;;;;;;14.27;10.55;;;;;;;;;;5051071;28;20029;-57
2024/02/28 07:57:39;;;;;;;13.50;8.40;;;;;;;;;;5051456;28;20109;-58
2024/02/28 08:00:06;;;;;;;15.88;9.88;;;;;;;;;;5050664;28;20040;-56
2024/02/28 08:02:33;;;;;;;13.38;8.10;;;;;;;;;;5050580;28;20077;-55
2024/02/28 08:04:59;;;;;;;16.00;9.85;;;;;;;;;;5050962;28;20049;-59
2024/02/28 08:07:25;;;;;;;13.70;9.25;;;;;;;;;;5050971;28;20123;-56
2024/02/28 08:09:51;;;;;;;14.50;10.85;;;;;;;;;;5051021;28;20068;-57
2024/02/28 08:12:17;;;;;;;17.05;9.65;;;;;;;;;;5050699;28;20029;-59
2024/02/28 08:14:43;;;;;;;39.13;14.77;;;;;;;;;;5050831;28;20426;-60
2024/02/28 08:17:09;;;;;;;23.23;11.90;;;;;;;;;;5050963;28;20032;-55
2024/02/28 08:19:35;;;;;;;12.57;7.90;;;;;;;;;;5050723;28;20399;-57
2024/02/28 08:22:02;;;;;;;13.57;9.02;;;;;;;;;;5050169;28;20028;-57
2024/02/28 08:24:28;;;;;;;12.55;8.25;;;;;;;;;;5049170;28;20551;-60
2024/02/28 08:26:55;;;;;;;12.40;7.60;;;;;;;;;;5049414;28;20132;-55
2024/02/28 08:29:21;;;;;;;12.38;7.45;;;;;;;;;;5050826;28;20048;-59
2024/02/28 08:31:47;;;;;;;12.50;7.45;;;;;;;;;;5049918;28;20399;-57
2024/02/28 08:34:13;;;;;;;19.65;9.57;;;;;;;;;;5049635;28;20075;-57
2024/02/28 08:36:39;;;;;;;33.85;11.02;;;;;;;;;;5048824;28;20483;-56
2024/02/28 08:39:05;;;;;;;11.45;6.70;;;;;;;;;;5048825;28;20017;-56
2024/02/28 08:41:34;;;;;;;31.85;14.68;;;;;;;;;;5049966;28;20056;-58
2024/02/28 08:44:00;;;;;;;17.85;11.02;;;;;;;;;;5049769;28;20055;-57
2024/02/28 08:46:26;;;;;;;14.63;9.93;;;;;;;;;;5050681;28;20069;-53
2024/02/28 08:48:52;;;;;;;11.90;7.00;;;;;;;;;;5050100;28;20028;-55
2024/02/28 08:51:18;;;;;;;12.10;7.70;;;;;;;;;;5067000;28;20055;-57
2024/02/28 08:53:44;;;;;;;13.05;8.48;;;;;;;;;;5050149;28;20490;-57
2024/02/28 08:56:10;;;;;;;15.20;8.38;;;;;;;;;;5049831;28;20025;-58
2024/02/28 08:58:37;;;;;;;13.77;10.35;;;;;;;;;;5050322;28;20052;-57
2024/02/28 09:01:04;;;;;;;12.70;8.40;;;;;;;;;;5049861;28;20052;-54
2024/02/28 09:03:30;;;;;;;12.35;7.82;;;;;;;;;;5049879;28;20027;-57
2024/02/28 09:05:56;;;;;;;12.10;7.10;;;;;;;;;;5048569;28;20037;-56
2024/02/28 09:08:22;;;;;;;13.02;7.82;;;;;;;;;;5049711;28;20043;-50
2024/02/28 09:10:48;;;;;;;12.63;7.40;;;;;;;;;;5049670;28;20140;-57
2024/02/28 09:13:14;;;;;;;17.00;11.80;;;;;;;;;;5047697;28;20025;-57
2024/02/28 09:15:40;;;;;;;13.25;8.10;;;;;;;;;;5049190;28;20087;-56
2024/02/28 09:18:06;;;;;;;13.48;8.38;;;;;;;;;;5049355;28;20025;-55
2024/02/28 09:20:32;;;;;;;13.50;8.50;;;;;;;;;;5049557;28;20028;-55
2024/02/28 09:22:58;;;;;;;13.90;9.43;;;;;;;;;;5047842;28;20536;-57
2024/02/28 09:25:24;;;;;;;24.80;11.10;;;;;;;;;;5049189;28;20043;-57
2024/02/28 09:27:50;;;;;;;14.63;10.00;;;;;;;;;;5049627;28;20047;-54
2024/02/28 09:30:18;;;;;;;13.63;8.88;;;;;;;;;;5048140;28;20032;-57
2024/02/28 09:32:44;;;;;;;17.63;11.70;;;;;;;;;;5049442;28;20135;-56
2024/02/28 09:35:10;;;;;;;19.52;17.48;;;;;;;;;;5049146;28;20124;-54
2024/02/28 09:37:37;;;;;;;14.57;10.55;;;;;;;;;;5049483;28;20028;-58
2024/02/28 09:40:05;;;;;;;13.70;8.85;;;;;;;;;;5049698;28;20052;-56
2024/02/28 09:42:31;;;;;;;14.10;10.10;;;;;;;;;;5049316;28;20036;-54
2024/02/28 09:45:00;;;;;;;13.95;9.50;;;;;;;;;;5051745;28;20090;-57
2024/02/28 09:47:26;;;;;;;13.82;9.40;;;;;;;;;;5048172;28;20021;-55
2024/02/28 09:49:54;;;;;;;15.25;10.20;;;;;;;;;;5047731;28;20445;-55
2024/02/28 09:52:20;;;;;;;14.57;10.57;;;;;;;;;;5047869;28;20029;-53
2024/02/28 09:54:46;;;;;;;14.40;9.93;;;;;;;;;;5049939;28;20033;-49
2024/02/28 09:57:12;;;;;;;15.10;12.10;;;;;;;;;;5049054;28;20100;-60
2024/02/28 09:59:40;;;;;;;14.95;10.48;;;;;;;;;;5037801;28;20487;-57
2024/02/28 10:02:10;;;;;;;14.00;9.30;;;;;;;;;;5028936;28;20033;-57
2024/02/28 10:04:36;;;;;;;14.20;9.15;;;;;;;;;;5047895;28;20128;-53
2024/02/28 10:07:15;;;;;;;14.50;10.75;;;;;;;;;;5049580;28;20078;-57
2024/02/28 10:09:42;;;;;;;14.48;10.65;;;;;;;;;;5048737;28;20031;-57
2024/02/28 10:12:08;;;;;;;13.43;8.45;;;;;;;;;;5040542;28;20494;-58
2024/02/28 10:14:34;;;;;;;13.70;9.07;;;;;;;;;;5036782;28;20085;-53
2024/02/28 10:17:00;;;;;;;14.65;10.10;;;;;;;;;;5031760;28;20380;-55
2024/02/28 10:19:26;;;;;;;13.85;9.27;;;;;;;;;;5033257;28;20097;-52
2024/02/28 10:21:52;;;;;;;13.80;9.18;;;;;;;;;;5044479;28;20017;-54
2024/02/28 10:24:19;;;;;;;13.80;9.40;;;;;;;;;;5052597;28;20077;-55
2024/02/28 10:26:48;;;;;;;14.00;9.90;;;;;;;;;;5052769;28;20451;-58
2024/02/28 10:29:14;;;;;;;13.77;9.27;;;;;;;;;;5052766;28;20033;-56
2024/02/28 10:31:40;;;;;;;19.23;11.70;;;;;;;;;;5052834;28;20028;-55
2024/02/28 10:34:07;;;;;;;14.48;10.50;;;;;;;;;;5068078;28;20025;-57
2024/02/28 10:36:33;;;;;;;14.88;10.70;;;;;;;;;;5068665;28;20032;-60
2024/02/28 10:39:00;;;;;;;14.00;10.30;;;;;;;;;;5068808;28;20013;-59
2024/02/28 10:41:27;;;;;;;14.00;9.80;;;;;;;;;;5049674;28;20387;-56
2024/02/28 10:43:53;;;;;;;14.73;10.70;;;;;;;;;;5050392;28;20100;-58
2024/02/28 10:46:21;;;;;;;17.35;14.50;;;;;;;;;;5049711;28;20087;-59
2024/02/28 10:48:49;;;;;;;13.75;9.23;;;;;;;;;;5049853;28;20025;-59
2024/02/28 10:51:16;;;;;;;15.18;9.80;;;;;;;;;;5049495;28;20498;-61
2024/02/28 10:53:42;;;;;;;15.82;14.05;;;;;;;;;;5048986;28;20653;-59
2024/02/28 10:56:10;;;;;;;14.18;9.63;;;;;;;;;;5048986;28;20455;-58
2024/02/28 10:58:37;;;;;;;24.00;15.68;;;;;;;;;;5050785;28;20032;-59
2024/02/28 11:01:03;;;;;;;13.68;9.00;;;;;;;;;;5050340;28;20096;-58
2024/02/28 11:03:31;;;;;;;13.70;9.10;;;;;;;;;;5050301;28;20104;-58
2024/02/28 11:05:57;;;;;;;15.13;10.15;;;;;;;;;;5049945;28;20025;-58
2024/02/28 11:08:23;;;;;;;13.68;9.00;;;;;;;;;;5051985;28;20060;-58
2024/02/28 11:10:56;;;;;;;21.17;13.65;;;;;;;;;;5052407;28;20362;-59
2024/02/28 11:13:23;;;;;;;14.40;9.70;;;;;;;;;;5051443;28;20459;-60
2024/02/28 11:15:49;;;;;;;13.75;9.20;;;;;;;;;;5051802;28;20025;-56
2024/02/28 11:18:15;;;;;;;13.65;8.90;;;;;;;;;;5051837;28;20182;-57
2024/02/28 11:20:42;;;;;;;13.77;8.93;;;;;;;;;;5050768;28;20220;-61
2024/02/28 11:23:09;;;;;;;17.65;13.82;;;;;;;;;;5052518;28;20032;-59
2024/02/28 11:25:35;;;;;;;17.40;14.30;;;;;;;;;;5050200;28;20635;-59
2024/02/28 11:28:01;;;;;;;13.85;9.35;;;;;;;;;;5050186;28;20052;-61
2024/02/28 11:30:27;;;;;;;14.82;10.65;;;;;;;;;;5050555;28;20132;-60
2024/02/28 11:32:58;;;;;;;13.88;9.50;;;;;;;;;;5050708;28;20410;-59
2024/02/28 11:35:25;;;;;;;18.45;13.75;;;;;;;;;;5051361;28;20028;-61
2024/02/28 11:37:53;;;;;;;27.33;14.15;;;;;;;;;;5051249;28;20622;-55
2024/02/28 11:40:19;;;;;;;;;;;;;;;;;;5051589;28;20440;-59
2024/02/28 11:42:45;;;;;;;13.73;9.13;;;;;;;;;;5051129;28;19951;-60
2024/02/28 11:45:11;;;;;;;13.90;9.60;;;;;;;;;;5049684;28;20036;-59
2024/02/28 11:47:38;;;;;;;16.85;12.50;;;;;;;;;;5050937;28;20045;-61
2024/02/28 11:50:04;;;;;;;13.95;9.75;;;;;;;;;;5066760;22;20033;-51
2024/02/28 11:52:34;;;;;;;14.60;10.77;;;;;;;;;;5050832;28;20119;-48
2024/02/28 11:55:00;;;;;;;14.30;10.32;;;;;;;;;;5051514;28;20390;-52
2024/02/28 11:57:26;;;;;;;13.73;9.15;;;;;;;;;;5051154;28;20052;-61
2024/02/28 11:59:52;;;;;;;15.85;11.35;;;;;;;;;;5051546;28;20391;-49
2024/02/28 12:02:18;;;;;;;13.73;9.15;;;;;;;;;;5049903;28;20024;-54
2024/02/28 12:04:50;;;;;;;13.73;9.00;;;;;;;;;;5050870;28;20055;-53
2024/02/28 12:07:16;;;;;;;13.73;9.13;;;;;;;;;;5051344;28;20461;-51
2024/02/28 12:09:44;;;;;;;13.70;8.95;;;;;;;;;;5051027;28;20517;-51
2024/02/28 12:12:12;;;;;;;13.70;9.10;;;;;;;;;;5050859;28;20024;-51
2024/02/28 12:14:38;;;;;;;14.35;9.30;;;;;;;;;;5051104;28;20052;-52
2024/02/28 12:17:04;;;;;;;13.88;9.50;;;;;;;;;;5051181;28;20017;-49
2024/02/28 12:19:30;;;;;;;13.60;8.70;;;;;;;;;;5049703;28;20111;-51
2024/02/28 12:21:58;;;;;;;13.60;8.55;;;;;;;;;;5050999;28;20094;-48
2024/02/28 12:24:24;;;;;;;16.25;10.45;;;;;;;;;;5050972;28;20032;-54
2024/02/28 12:26:50;;;;;;;15.93;9.68;;;;;;;;;;5050652;28;20025;-52
2024/02/28 12:29:16;;;;;;;13.50;8.30;;;;;;;;;;5051017;28;20049;-50
2024/02/28 12:31:42;;;;;;;15.98;14.18;;;;;;;;;;5051076;28;20441;-54
2024/02/28 12:34:08;;;;;;;14.00;10.20;;;;;;;;;;5050100;28;20086;-54
2024/02/28 12:36:34;;;;;;;16.17;11.70;;;;;;;;;;5049101;28;20078;-52
2024/02/28 12:39:00;;;;;;;12.90;7.57;;;;;;;;;;5048799;28;20013;-50
2024/02/28 12:41:27;;;;;;;12.10;7.10;;;;;;;;;;5040882;28;20013;-55
2024/02/28 12:43:53;;;;;;;14.82;8.70;;;;;;;;;;5040767;28;20071;-54
2024/02/28 12:46:19;;;;;;;12.40;7.70;;;;;;;;;;5042587;28;20025;-53
2024/02/28 12:48:47;;;;;;;13.60;9.70;;;;;;;;;;5028822;28;20030;-51
2024/02/28 12:51:33;;;;;;;14.95;9.35;;;;;;;;;;5038642;28;20048;-54
2024/02/28 12:53:59;;;;;;;12.60;7.20;;;;;;;;;;5043544;28;20025;-53
2024/02/28 12:56:25;;;;;;;15.75;9.23;;;;;;;;;;5032936;28;20404;-53
2024/02/28 12:58:51;;;;;;;12.25;7.22;;;;;;;;;;5034538;28;20123;-53
2024/02/28 13:01:17;;;;;;;13.35;8.15;;;;;;;;;;5042466;28;20060;-55
2024/02/28 13:03:43;;;;;;;12.80;7.45;;;;;;;;;;5036382;28;20036;-53
2024/02/28 13:06:09;;;;;;;15.50;10.98;;;;;;;;;;5050245;28;20020;-52
2024/02/28 13:08:35;;;;;;;14.05;8.50;;;;;;;;;;5048614;28;20029;-54
2024/02/28 13:11:01;;;;;;;18.30;11.52;;;;;;;;;;5048824;28;20020;-56
2024/02/28 13:13:27;;;;;;;14.65;8.27;;;;;;;;;;5049988;28;20048;-53
2024/02/28 13:15:53;;;;;;;12.27;7.20;;;;;;;;;;5038154;28;20514;-49
2024/02/28 13:18:19;;;;;;;12.30;7.20;;;;;;;;;;5031696;28;20053;-54
2024/02/28 13:20:45;;;;;;;17.92;8.32;;;;;;;;;;5034377;28;20070;-51
2024/02/28 13:23:11;;;;;;;16.15;11.57;;;;;;;;;;5050779;28;20553;-54
2024/02/28 13:25:37;;;;;;;12.40;7.20;;;;;;;;;;5041923;28;20021;-55
2024/02/28 13:28:03;;;;;;;20.98;11.20;;;;;;;;;;5043986;28;20107;-53
2024/02/28 13:30:29;;;;;;;12.73;7.40;;;;;;;;;;5050759;28;20017;-54
2024/02/28 13:32:55;;;;;;;19.83;11.88;;;;;;;;;;5050452;28;20094;-53
2024/02/28 13:35:21;;;;;;;17.83;9.50;;;;;;;;;;5064983;28;20486;-57
2024/02/28 13:37:47;;;;;;;12.23;7.10;;;;;;;;;;5050152;28;20029;-54
2024/02/28 13:40:13;;;;;;;12.77;7.43;;;;;;;;;;5050014;28;20025;-53
2024/02/28 13:42:39;;;;;;;12.82;7.47;;;;;;;;;;5048749;28;20021;-55
2024/02/28 13:45:09;;;;;;;12.95;7.50;;;;;;;;;;5050191;28;20052;-49
2024/02/28 13:47:35;;;;;;;13.30;8.15;;;;;;;;;;5049910;28;20021;-53
2024/02/28 13:50:02;;;;;;;13.52;9.00;;;;;;;;;;5049979;28;20372;-52
2024/02/28 13:52:28;;;;;;;14.07;8.30;;;;;;;;;;5050320;28;20383;-51
2024/02/28 13:54:54;;;;;;;13.65;8.80;;;;;;;;;;5045003;28;20037;-51
2024/02/28 13:57:20;;;;;;;12.32;7.20;;;;;;;;;;5031540;28;20048;-52
2024/02/28 13:59:48;;;;;;;12.95;8.00;;;;;;;;;;5030268;28;20487;-54
2024/02/28 14:02:15;;;;;;;13.02;7.55;;;;;;;;;;5030294;28;20464;-53
2024/02/28 14:04:42;;;;;;;16.92;11.60;;;;;;;;;;5045342;28;20495;-52
2024/02/28 14:07:08;;;;;;;13.30;8.10;;;;;;;;;;5048513;28;20399;-52
2024/02/28 14:09:34;;;;;;;13.63;8.98;;;;;;;;;;5048780;28;20020;-54
2024/02/28 14:12:00;;;;;;;14.15;9.52;;;;;;;;;;5049600;28;20017;-58
2024/02/28 14:14:27;;;;;;;14.73;9.55;;;;;;;;;;5049758;28;20036;-52
2024/02/28 14:16:53;;;;;;;12.68;7.55;;;;;;;;;;5049977;28;20100;-54
2024/02/28 14:19:19;;;;;;;13.20;7.80;;;;;;;;;;5048751;28;20063;-50
2024/02/28 14:21:45;;;;;;;13.00;7.60;;;;;;;;;;5048177;28;20025;-53
2024/02/28 14:24:11;;;;;;;15.93;8.65;;;;;;;;;;5048915;28;20098;-53
2024/02/28 14:26:37;;;;;;;12.40;7.22;;;;;;;;;;5049698;28;20074;-54
2024/02/28 14:29:05;;;;;;;13.15;7.70;;;;;;;;;;5047783;28;20078;-53
2024/02/28 14:31:31;;;;;;;12.93;7.60;;;;;;;;;;5048718;28;20120;-48
2024/02/28 14:33:57;;;;;;;13.32;8.30;;;;;;;;;;5048892;28;20100;-51
2024/02/28 14:36:25;;;;;;;16.10;11.20;;;;;;;;;;5049752;28;20029;-64
2024/02/28 14:38:51;;;;;;;12.68;7.40;;;;;;;;;;5053021;28;20021;-52
2024/02/28 14:41:17;;;;;;;13.05;7.60;;;;;;;;;;5047228;28;20028;-55
2024/02/28 14:43:43;;;;;;;12.77;7.40;;;;;;;;;;5047998;28;20029;-49
2024/02/28 14:46:09;;;;;;;13.30;8.10;;;;;;;;;;5046531;28;20040;-54
2024/02/28 14:48:36;;;;;;;13.13;7.65;;;;;;;;;;5048237;28;20021;-56